createdAt,value
2019-05-09T00:01:14.973Z,8.60
2019-05-09T00:03:44.742Z,8.60
2019-05-09T00:06:14.277Z,8.60
2019-05-09T00:08:44.358Z,8.60
2019-05-09T00:11:14.811Z,8.50
2019-05-09T00:13:44.648Z,8.50
2019-05-09T00:16:14.764Z,8.50
2019-05-09T00:18:44.407Z,8.50
2019-05-09T00:21:25.074Z,8.50
2019-05-09T00:23:54.517Z,8.50
2019-05-09T00:26:24.349Z,8.50
2019-05-09T00:28:57.448Z,8.50
2019-05-09T00:31:46.320Z,8.40
2019-05-09T00:34:23.463Z,8.40
2019-05-09T00:36:53.994Z,8.50
2019-05-09T00:39:23.709Z,8.60
2019-05-09T00:41:53.926Z,8.60
2019-05-09T00:44:26.801Z,8.70
2019-05-09T00:47:05.182Z,8.80
2019-05-09T00:49:34.623Z,8.90
2019-05-09T00:52:04.028Z,8.90
2019-05-09T00:54:33.740Z,8.90
2019-05-09T00:57:03.342Z,8.90
2019-05-09T00:59:33.356Z,8.90
2019-05-09T01:02:03.959Z,9.00
2019-05-09T01:04:33.796Z,9.00
2019-05-09T01:07:03.587Z,9.00
2019-05-09T01:09:33.546Z,9.10
2019-05-09T01:12:03.979Z,9.10
2019-05-09T01:14:34.075Z,9.10
2019-05-09T01:17:04.328Z,9.20
2019-05-09T01:19:34.424Z,9.30
2019-05-09T01:22:03.962Z,9.30
2019-05-09T01:24:33.942Z,9.30
2019-05-09T01:27:03.805Z,9.30
2019-05-09T01:29:33.852Z,9.30
2019-05-09T01:32:06.100Z,9.40
2019-05-09T01:34:36.106Z,9.40
2019-05-09T01:37:10.573Z,9.30
2019-05-09T01:39:40.126Z,9.30
2019-05-09T01:42:09.586Z,9.20
2019-05-09T01:44:39.263Z,9.10
2019-05-09T01:47:08.989Z,9.20
2019-05-09T01:49:38.391Z,9.20
2019-05-09T01:52:07.821Z,9.20
2019-05-09T01:54:38.809Z,9.20
2019-05-09T01:57:08.636Z,9.20
2019-05-09T01:59:38.352Z,9.30
2019-05-09T02:02:09.021Z,9.20
2019-05-09T02:04:38.527Z,9.10
2019-05-09T02:07:07.956Z,9.00
2019-05-09T02:09:37.384Z,8.90
2019-05-09T02:12:06.816Z,8.90
2019-05-09T02:14:43.786Z,8.90
2019-05-09T02:17:33.471Z,8.90
2019-05-09T02:20:03.994Z,8.80
2019-05-09T02:22:34.437Z,8.70
2019-05-09T02:25:07.945Z,8.60
2019-05-09T02:27:37.515Z,8.60
2019-05-09T02:30:07.819Z,8.60
2019-05-09T02:32:37.308Z,8.70
2019-05-09T02:35:07.497Z,8.70
2019-05-09T02:37:38.967Z,8.70
2019-05-09T02:40:09.701Z,8.80
2019-05-09T02:42:39.915Z,8.70
2019-05-09T02:45:10.306Z,8.80
2019-05-09T02:47:39.773Z,8.80
2019-05-09T02:50:10.173Z,8.80
2019-05-09T02:52:40.165Z,8.80
2019-05-09T02:55:10.607Z,8.80
2019-05-09T02:57:40.371Z,8.70
2019-05-09T03:00:29.923Z,8.70
2019-05-09T03:03:08.939Z,8.60
2019-05-09T03:05:38.442Z,8.60
2019-05-09T03:08:09.338Z,8.50
2019-05-09T03:10:39.054Z,8.50
2019-05-09T03:13:09.437Z,8.40
2019-05-09T03:15:39.734Z,8.30
2019-05-09T03:18:09.442Z,8.40
2019-05-09T03:21:18.930Z,8.30
2019-05-09T03:23:48.945Z,8.30
2019-05-09T03:26:21.745Z,8.30
2019-05-09T03:29:09.022Z,8.30
2019-05-09T03:31:39.551Z,8.30
2019-05-09T03:34:10.025Z,8.30
2019-05-09T03:36:39.793Z,8.50
2019-05-09T03:39:10.586Z,8.60
2019-05-09T03:41:40.009Z,8.70
2019-05-09T03:44:09.737Z,8.70
2019-05-09T03:46:47.645Z,8.70
2019-05-09T03:49:18.022Z,8.70
2019-05-09T03:51:48.275Z,8.60
2019-05-09T03:54:18.488Z,8.60
2019-05-09T03:56:53.245Z,8.50
2019-05-09T03:59:22.975Z,8.50
2019-05-09T04:01:52.409Z,8.40
2019-05-09T04:04:21.999Z,8.40
2019-05-09T04:06:51.765Z,8.50
2019-05-09T04:09:21.199Z,8.50
2019-05-09T04:11:50.909Z,8.50
2019-05-09T04:14:24.069Z,8.50
2019-05-09T04:16:53.765Z,8.60
2019-05-09T04:19:23.205Z,8.60
2019-05-09T04:21:52.637Z,8.60
2019-05-09T04:24:23.119Z,8.70
2019-05-09T04:26:58.009Z,8.70
2019-05-09T04:29:28.582Z,8.80
2019-05-09T04:31:58.188Z,8.90
2019-05-09T04:34:27.703Z,9.20
2019-05-09T04:36:57.751Z,9.10
2019-05-09T04:39:28.356Z,9.10
2019-05-09T04:42:03.431Z,9.50
2019-05-09T04:44:34.892Z,10.20
2019-05-09T04:47:04.617Z,10.70
2019-05-09T04:49:41.095Z,11.00
2019-05-09T04:52:07.622Z,11.00
2019-05-09T04:54:38.438Z,11.00
2019-05-09T04:57:08.073Z,10.60
2019-05-09T04:59:37.817Z,10.50
2019-05-09T05:02:28.944Z,10.40
2019-05-09T05:04:58.704Z,11.00
2019-05-09T05:07:28.793Z,11.80
2019-05-09T05:09:58.748Z,12.30
2019-05-09T05:12:28.150Z,12.60
2019-05-09T05:14:58.138Z,12.40
2019-05-09T05:17:30.287Z,12.00
2019-05-09T05:19:59.329Z,11.70
2019-05-09T05:22:38.740Z,11.50
2019-05-09T05:25:09.301Z,11.70
2019-05-09T05:27:39.000Z,12.10
2019-05-09T05:30:08.950Z,12.40
2019-05-09T05:32:43.994Z,12.30
2019-05-09T05:35:19.743Z,12.00
2019-05-09T05:37:49.146Z,11.70
2019-05-09T05:40:18.896Z,11.60
2019-05-09T05:42:48.297Z,11.40
2019-05-09T05:45:18.269Z,11.30
2019-05-09T05:47:57.698Z,11.20
2019-05-09T05:50:28.199Z,11.20
2019-05-09T05:52:58.020Z,11.10
2019-05-09T05:55:27.724Z,11.10
2019-05-09T05:57:58.029Z,11.00
2019-05-09T06:00:28.533Z,10.90
2019-05-09T06:02:58.795Z,11.00
2019-05-09T06:05:28.307Z,11.10
2019-05-09T06:07:58.161Z,11.00
2019-05-09T06:10:29.016Z,11.00
2019-05-09T06:12:58.633Z,11.00
2019-05-09T06:15:28.767Z,10.90
2019-05-09T06:17:58.729Z,11.00
2019-05-09T06:20:28.325Z,10.90
2019-05-09T06:22:58.314Z,10.90
2019-05-09T06:25:30.598Z,10.90
2019-05-09T06:27:59.003Z,10.90
2019-05-09T06:30:29.860Z,10.90
2019-05-09T06:32:59.503Z,10.90
2019-05-09T06:35:29.013Z,10.90
2019-05-09T06:37:58.930Z,10.90
2019-05-09T06:40:29.583Z,11.00
2019-05-09T06:43:00.157Z,10.90
2019-05-09T06:45:45.342Z,10.90
2019-05-09T06:48:17.948Z,11.00
2019-05-09T06:50:48.361Z,11.00
2019-05-09T06:53:18.212Z,11.10
2019-05-09T06:55:48.130Z,11.10
2019-05-09T06:58:32.909Z,11.30
2019-05-09T07:01:31.265Z,11.50
2019-05-09T07:04:09.013Z,12.00
2019-05-09T07:06:45.051Z,13.10
2019-05-09T07:09:38.442Z,13.50
2019-05-09T07:12:08.266Z,13.60
2019-05-09T07:14:41.668Z,13.20
2019-05-09T07:17:09.656Z,13.10
2019-05-09T07:19:43.298Z,12.90
2019-05-09T07:22:32.573Z,13.10
2019-05-09T07:25:10.779Z,13.20
2019-05-09T07:27:39.177Z,13.20
2019-05-09T07:30:23.473Z,13.20
2019-05-09T07:32:59.404Z,13.10
2019-05-09T07:35:28.856Z,13.00
2019-05-09T07:37:58.313Z,12.90
2019-05-09T07:40:30.683Z,13.10
2019-05-09T07:42:59.863Z,13.00
2019-05-09T07:45:29.311Z,13.00
2019-05-09T07:47:58.903Z,12.80
2019-05-09T07:50:28.357Z,12.70
2019-05-09T07:52:58.301Z,12.90
2019-05-09T07:55:28.060Z,13.10
2019-05-09T07:57:59.053Z,13.20
2019-05-09T08:00:33.538Z,13.40
2019-05-09T08:03:03.138Z,13.50
2019-05-09T08:05:32.985Z,13.40
2019-05-09T08:08:02.412Z,13.30
2019-05-09T08:10:33.285Z,13.20
2019-05-09T08:13:03.163Z,13.20
2019-05-09T08:15:32.744Z,13.20
2019-05-09T08:18:02.242Z,13.30
2019-05-09T08:20:31.675Z,13.40
2019-05-09T08:23:02.319Z,13.50
2019-05-09T08:25:32.057Z,13.50
2019-05-09T08:28:01.809Z,13.50
2019-05-09T08:30:35.763Z,13.60
2019-05-09T08:33:02.944Z,13.40
2019-05-09T08:35:32.374Z,13.20
2019-05-09T08:38:01.835Z,13.00
2019-05-09T08:40:31.553Z,12.90
2019-05-09T08:43:01.323Z,12.70
2019-05-09T08:45:31.628Z,12.60
2019-05-09T08:48:01.512Z,12.70
2019-05-09T08:50:39.179Z,12.70
2019-05-09T08:53:08.812Z,12.70
2019-05-09T08:55:38.613Z,12.70
2019-05-09T08:58:08.256Z,12.60
2019-05-09T09:00:39.160Z,12.50
2019-05-09T09:03:08.761Z,12.40
2019-05-09T09:05:38.670Z,12.30
2019-05-09T09:08:08.592Z,12.30
2019-05-09T09:10:38.695Z,12.20
2019-05-09T09:13:09.126Z,12.00
2019-05-09T09:18:09.717Z,11.80
2019-05-09T09:20:39.161Z,11.70
2019-05-09T09:23:09.207Z,11.70
2019-05-09T09:25:39.258Z,11.70
2019-05-09T09:28:09.146Z,11.70
2019-05-09T09:30:39.077Z,11.80
2019-05-09T09:33:13.144Z,11.90
2019-05-09T09:35:39.618Z,12.00
2019-05-09T09:38:09.503Z,12.10
2019-05-09T09:40:39.053Z,12.20
2019-05-09T09:43:09.394Z,12.30
2019-05-09T09:45:39.208Z,12.50
2019-05-09T09:48:09.309Z,12.70
2019-05-09T09:50:39.084Z,13.00
2019-05-09T09:53:09.163Z,13.50
2019-05-09T09:55:38.860Z,13.70
2019-05-09T09:58:08.595Z,13.70
2019-05-09T10:00:58.232Z,13.70
2019-05-09T10:03:26.680Z,14.00
2019-05-09T10:05:57.781Z,13.90
2019-05-09T10:08:27.282Z,14.20
2019-05-09T10:10:59.032Z,14.20
2019-05-09T10:13:28.545Z,14.30
2019-05-09T10:16:27.508Z,14.80
2019-05-09T10:19:05.035Z,14.90
2019-05-09T10:21:38.279Z,15.10
2019-05-09T10:24:08.053Z,15.10
2019-05-09T10:26:40.951Z,15.00
2019-05-09T10:29:10.601Z,15.10
2019-05-09T10:31:40.065Z,15.20
2019-05-09T10:34:11.129Z,15.40
2019-05-09T10:36:40.689Z,15.40
2019-05-09T10:39:10.074Z,15.40
2019-05-09T10:41:39.746Z,15.30
2019-05-09T10:44:15.402Z,15.50
2019-05-09T10:47:01.973Z,15.60
2019-05-09T10:49:29.645Z,15.80
2019-05-09T10:51:59.069Z,16.40
2019-05-09T10:54:28.379Z,16.40
2019-05-09T10:56:58.132Z,16.50
2019-05-09T10:59:27.554Z,16.70
2019-05-09T11:01:57.966Z,16.80
2019-05-09T11:04:28.805Z,16.90
2019-05-09T11:06:58.442Z,16.90
2019-05-09T11:09:29.090Z,16.80
2019-05-09T11:12:01.275Z,16.80
2019-05-09T11:14:36.872Z,16.60
2019-05-09T11:17:10.858Z,16.50
2019-05-09T11:19:33.704Z,16.20
2019-05-09T11:22:03.518Z,16.00
2019-05-09T11:24:43.024Z,16.20
2019-05-09T11:27:03.995Z,15.90
2019-05-09T11:29:33.412Z,15.70
2019-05-09T11:32:03.094Z,15.40
2019-05-09T11:34:32.505Z,15.10
2019-05-09T11:37:01.930Z,14.90
2019-05-09T11:39:38.208Z,14.70
2019-05-09T11:42:02.414Z,14.40
2019-05-09T11:44:32.113Z,14.10
2019-05-09T11:47:01.854Z,13.80
2019-05-09T11:49:31.631Z,13.50
2019-05-09T11:52:01.329Z,13.00
2019-05-09T11:54:30.749Z,12.80
2019-05-09T11:57:00.861Z,12.60
2019-05-09T11:59:30.301Z,12.60
2019-05-09T12:01:59.704Z,12.40
2019-05-09T12:04:29.133Z,12.40
2019-05-09T12:06:59.349Z,12.40
2019-05-09T12:09:29.052Z,12.40
2019-05-09T12:11:59.202Z,12.40
2019-05-09T12:14:28.758Z,12.30
2019-05-09T12:16:58.202Z,12.30
2019-05-09T12:19:29.554Z,12.30
2019-05-09T12:21:59.473Z,12.30
2019-05-09T12:24:29.646Z,12.40
2019-05-09T12:27:02.909Z,12.50
2019-05-09T12:29:30.285Z,12.50
2019-05-09T12:31:59.840Z,12.50
2019-05-09T12:34:29.255Z,12.50
2019-05-09T12:36:58.729Z,12.50
2019-05-09T12:39:28.455Z,12.60
2019-05-09T12:41:58.052Z,12.70
2019-05-09T12:44:28.791Z,12.70
2019-05-09T12:46:58.650Z,12.80
2019-05-09T12:49:28.385Z,12.90
2019-05-09T12:51:58.544Z,13.00
2019-05-09T12:54:28.416Z,13.10
2019-05-09T12:56:59.175Z,13.10
2019-05-09T12:59:29.376Z,13.30
2019-05-09T13:02:00.352Z,13.30
2019-05-09T13:04:30.053Z,13.40
2019-05-09T13:07:00.223Z,13.30
2019-05-09T13:09:29.638Z,13.40
2019-05-09T13:11:59.471Z,13.60
2019-05-09T13:14:28.884Z,13.80
2019-05-09T13:17:10.227Z,13.90
2019-05-09T13:19:47.802Z,14.10
2019-05-09T13:22:18.473Z,14.30
2019-05-09T13:24:48.083Z,14.20
2019-05-09T13:27:18.897Z,14.20
2019-05-09T13:29:49.268Z,14.10
2019-05-09T13:32:19.058Z,14.10
2019-05-09T13:34:48.844Z,14.00
2019-05-09T13:37:18.901Z,13.70
2019-05-09T13:39:48.444Z,13.80
2019-05-09T13:42:19.654Z,13.80
2019-05-09T13:44:49.609Z,13.70
2019-05-09T13:47:19.082Z,13.70
2019-05-09T13:49:48.587Z,13.70
2019-05-09T13:52:18.168Z,13.70
2019-05-09T13:54:48.341Z,13.60
2019-05-09T13:57:18.920Z,13.60
2019-05-09T13:59:49.010Z,13.70
2019-05-09T14:02:19.004Z,13.90
2019-05-09T14:04:48.862Z,13.90
2019-05-09T14:07:19.270Z,13.80
2019-05-09T14:09:48.921Z,13.70
2019-05-09T14:12:18.382Z,13.60
2019-05-09T14:14:47.914Z,13.60
2019-05-09T14:17:19.004Z,13.80
2019-05-09T14:19:51.146Z,14.10
2019-05-09T14:22:20.135Z,14.30
2019-05-09T14:24:49.549Z,14.60
2019-05-09T14:27:19.578Z,14.80
2019-05-09T14:29:49.712Z,14.70
2019-05-09T14:32:19.331Z,14.60
2019-05-09T14:34:48.731Z,14.60
2019-05-09T14:37:18.233Z,14.70
2019-05-09T14:39:55.738Z,14.80
2019-05-09T14:42:19.003Z,14.90
2019-05-09T14:44:48.374Z,14.90
2019-05-09T14:47:17.868Z,14.80
2019-05-09T14:49:49.983Z,14.90
2019-05-09T14:52:18.686Z,15.10
2019-05-09T14:54:48.390Z,15.20
2019-05-09T14:57:17.818Z,15.30
2019-05-09T14:59:47.223Z,15.10
2019-05-09T15:02:17.936Z,14.90
2019-05-09T15:04:48.551Z,14.90
2019-05-09T15:07:19.385Z,14.60
2019-05-09T15:09:49.047Z,14.40
2019-05-09T15:12:18.662Z,14.40
2019-05-09T15:14:48.423Z,14.00
2019-05-09T15:17:18.476Z,13.90
2019-05-09T15:19:57.345Z,13.60
2019-05-09T15:22:19.331Z,13.50
2019-05-09T15:24:48.862Z,13.50
2019-05-09T15:27:18.299Z,13.40
2019-05-09T15:29:48.648Z,13.40
2019-05-09T15:32:18.439Z,13.30
2019-05-09T15:34:47.879Z,13.40
2019-05-09T15:37:18.612Z,13.60
2019-05-09T15:39:48.554Z,13.70
2019-05-09T15:42:18.646Z,13.80
2019-05-09T15:44:48.105Z,13.90
2019-05-09T15:47:21.873Z,13.80
2019-05-09T15:49:51.582Z,13.80
2019-05-09T15:52:21.004Z,13.70
2019-05-09T15:54:50.890Z,13.80
2019-05-09T15:57:20.684Z,13.70
2019-05-09T15:59:50.118Z,13.70
2019-05-09T16:02:19.593Z,13.70
2019-05-09T16:04:49.021Z,13.60
2019-05-09T16:07:18.449Z,13.50
2019-05-09T16:09:48.426Z,13.60
2019-05-09T16:12:18.482Z,13.50
2019-05-09T16:14:48.675Z,13.40
2019-05-09T16:17:19.133Z,13.20
2019-05-09T16:19:49.312Z,13.10
2019-05-09T16:22:19.226Z,12.90
2019-05-09T16:24:48.922Z,13.00
2019-05-09T16:27:21.107Z,12.90
2019-05-09T16:29:50.505Z,12.90
2019-05-09T16:32:20.219Z,12.80
2019-05-09T16:34:49.970Z,12.70
2019-05-09T16:37:19.412Z,12.70
2019-05-09T16:39:49.102Z,13.10
2019-05-09T16:42:18.606Z,13.50
2019-05-09T16:44:48.227Z,14.00
2019-05-09T16:47:21.728Z,13.80
2019-05-09T16:49:48.961Z,13.80
2019-05-09T16:52:20.075Z,13.60
2019-05-09T16:54:51.574Z,13.50
2019-05-09T16:57:21.257Z,13.40
2019-05-09T16:59:50.647Z,13.40
2019-05-09T17:02:24.768Z,13.50
2019-05-09T17:04:51.709Z,13.40
2019-05-09T17:07:21.266Z,13.30
2019-05-09T17:09:50.736Z,13.20
2019-05-09T17:12:20.718Z,13.10
2019-05-09T17:14:50.947Z,13.00
2019-05-09T17:17:20.334Z,13.00
2019-05-09T17:19:50.018Z,12.90
2019-05-09T17:23:08.328Z,12.90
2019-05-09T17:25:24.904Z,13.00
2019-05-09T17:27:56.920Z,13.00
2019-05-09T17:30:28.448Z,13.00
2019-05-09T17:32:58.379Z,12.90
2019-05-09T17:35:28.059Z,12.90
2019-05-09T17:37:57.461Z,12.80
2019-05-09T17:40:28.140Z,12.80
2019-05-09T17:42:59.128Z,12.80
2019-05-09T17:45:29.245Z,12.90
2019-05-09T17:47:58.663Z,12.90
2019-05-09T17:50:28.655Z,12.90
2019-05-09T17:52:58.224Z,12.80
2019-05-09T17:55:27.654Z,12.70
2019-05-09T17:57:58.673Z,12.70
2019-05-09T18:00:28.407Z,12.70
2019-05-09T18:02:58.066Z,12.70
2019-05-09T18:05:27.459Z,12.70
2019-05-09T18:07:57.887Z,12.70
2019-05-09T18:10:27.421Z,12.70
2019-05-09T18:12:58.823Z,12.70
2019-05-09T18:15:28.420Z,12.70
2019-05-09T18:17:58.597Z,12.70
2019-05-09T18:20:28.517Z,12.70
2019-05-09T18:22:58.611Z,12.60
2019-05-09T18:25:28.519Z,12.60
2019-05-09T18:27:57.914Z,12.50
2019-05-09T18:30:28.094Z,12.40
2019-05-09T18:33:03.026Z,12.40
2019-05-09T18:35:33.143Z,12.50
2019-05-09T18:38:02.951Z,12.40
2019-05-09T18:40:32.342Z,12.40
2019-05-09T18:43:01.715Z,12.40
2019-05-09T18:45:31.490Z,12.30
2019-05-09T18:48:01.160Z,12.40
2019-05-09T18:50:30.611Z,12.40
2019-05-09T18:53:00.069Z,12.40
2019-05-09T18:55:29.479Z,12.40
2019-05-09T18:57:58.850Z,12.40
2019-05-09T19:00:28.204Z,12.40
2019-05-09T19:02:57.669Z,12.30
2019-05-09T19:05:27.470Z,12.30
2019-05-09T19:07:56.828Z,12.30
2019-05-09T19:10:26.352Z,12.30
2019-05-09T19:12:55.835Z,12.20
2019-05-09T19:15:59.811Z,12.20
2019-05-09T19:18:56.933Z,12.20
2019-05-09T19:21:33.112Z,12.20
2019-05-09T19:24:02.497Z,12.20
2019-05-09T19:26:38.436Z,12.10
2019-05-09T19:29:09.140Z,12.10
2019-05-09T19:31:39.388Z,12.10
2019-05-09T19:34:09.045Z,12.00
2019-05-09T19:36:38.675Z,12.10
2019-05-09T19:39:12.104Z,12.00
2019-05-09T19:41:42.235Z,12.00
2019-05-09T19:44:11.660Z,11.90
2019-05-09T19:46:41.379Z,12.00
2019-05-09T19:49:11.490Z,12.00
2019-05-09T19:51:40.902Z,12.00
2019-05-09T19:54:10.896Z,12.00
2019-05-09T19:56:40.583Z,12.00
2019-05-09T19:59:10.044Z,11.90
2019-05-09T20:01:39.434Z,11.90
2019-05-09T20:04:08.919Z,11.80
2019-05-09T20:06:38.677Z,11.80
2019-05-09T20:09:13.543Z,11.70
2019-05-09T20:11:50.244Z,11.70
2019-05-09T20:14:25.996Z,11.70
2019-05-09T20:16:56.362Z,11.60
2019-05-09T20:19:25.870Z,11.60
2019-05-09T20:21:55.265Z,11.60
2019-05-09T20:24:24.917Z,11.50
2019-05-09T20:26:54.762Z,11.40
2019-05-09T20:29:24.120Z,11.40
2019-05-09T20:31:53.510Z,11.30
2019-05-09T20:34:22.905Z,11.30
2019-05-09T20:36:52.595Z,11.30
2019-05-09T20:39:22.136Z,11.30
2019-05-09T20:41:51.741Z,11.30
2019-05-09T20:44:21.592Z,11.40
2019-05-09T20:46:51.491Z,11.40
2019-05-09T20:49:21.106Z,11.40
2019-05-09T20:51:50.701Z,11.30
2019-05-09T20:54:21.577Z,11.30
2019-05-09T20:56:51.256Z,11.20
2019-05-09T20:59:21.178Z,11.10
2019-05-09T21:01:51.106Z,11.10
2019-05-09T21:04:20.704Z,11.10
2019-05-09T21:06:50.682Z,11.10
2019-05-09T21:09:20.324Z,11.20
2019-05-09T21:11:49.996Z,11.30
2019-05-09T21:14:19.591Z,11.30
2019-05-09T21:16:49.282Z,11.40
2019-05-09T21:19:18.866Z,11.40
2019-05-09T21:21:48.362Z,11.40
2019-05-09T21:24:18.172Z,11.40
2019-05-09T21:26:47.766Z,11.40
2019-05-09T21:29:17.912Z,11.40
2019-05-09T21:31:47.773Z,11.40
2019-05-09T21:34:18.337Z,11.40
2019-05-09T21:36:48.250Z,11.40
2019-05-09T21:39:17.928Z,11.40
2019-05-09T21:41:47.290Z,11.30
2019-05-09T21:44:16.711Z,11.30
2019-05-09T21:46:46.178Z,11.30
2019-05-09T21:49:15.918Z,11.30
2019-05-09T21:51:45.298Z,11.30
2019-05-09T21:54:15.081Z,11.30
2019-05-09T21:56:44.464Z,11.30
2019-05-09T21:59:13.874Z,11.30
2019-05-09T22:01:44.232Z,11.30
2019-05-09T22:04:13.652Z,11.30
2019-05-09T22:06:43.335Z,11.40
2019-05-09T22:09:12.939Z,11.40
2019-05-09T22:11:42.340Z,11.40
2019-05-09T22:14:12.086Z,11.40
2019-05-09T22:16:42.249Z,11.40
2019-05-09T22:19:11.684Z,11.40
2019-05-09T22:21:41.108Z,11.40
2019-05-09T22:24:10.512Z,11.30
2019-05-09T22:26:39.890Z,11.20
2019-05-09T22:29:09.311Z,11.20
2019-05-09T22:31:39.079Z,11.20
2019-05-09T22:34:08.517Z,11.20
2019-05-09T22:36:37.901Z,11.20
2019-05-09T22:39:08.247Z,11.20
2019-05-09T22:41:37.635Z,11.20
2019-05-09T22:44:07.025Z,11.10
2019-05-09T22:46:36.683Z,11.00
2019-05-09T22:49:06.094Z,11.00
2019-05-09T22:51:35.541Z,10.90
2019-05-09T22:54:12.628Z,10.90
2019-05-09T22:56:36.012Z,10.90
2019-05-09T22:59:05.421Z,11.00
2019-05-09T23:01:34.808Z,11.00
2019-05-09T23:04:04.316Z,11.00
2019-05-09T23:06:34.567Z,11.00
2019-05-09T23:09:05.363Z,11.00
2019-05-09T23:11:35.013Z,11.00
2019-05-09T23:14:04.536Z,11.10
2019-05-09T23:16:36.137Z,11.10
2019-05-09T23:19:05.560Z,11.20
2019-05-09T23:21:34.943Z,11.20
2019-05-09T23:24:09.677Z,11.20
2019-05-09T23:26:39.094Z,11.20
2019-05-09T23:29:08.550Z,11.30
2019-05-09T23:31:45.836Z,11.30
2019-05-09T23:34:15.243Z,11.30
2019-05-09T23:36:44.619Z,11.20
2019-05-09T23:39:20.448Z,11.10
2019-05-09T23:41:49.949Z,11.00
2019-05-09T23:44:19.365Z,11.00
2019-05-09T23:46:48.741Z,11.00
2019-05-09T23:49:18.658Z,11.10
2019-05-09T23:51:50.795Z,11.10
2019-05-09T23:54:47.566Z,11.10
2019-05-09T23:57:28.237Z,11.10
